Time;durP1;ratioP1;P1;durP2;ratioP2;P2;SDS_P1;SDS_P2;PMS_P1;PMS_P2;Temp;Humidity;BMP_temperature;BMP_pressure;BME280_temperature;BME280_humidity;BME280_pressure;Samples;Min_cycle;Max_cycle;Signal;HPM_P1;HPM_P2
2023/08/08 00:02:05;;;;;;;5.60;2.50;;;;;;;;;;5051965;28;20413;-58
2023/08/08 00:04:32;;;;;;;3.78;2.50;;;;;;;;;;5050896;28;20413;-56
2023/08/08 00:06:59;;;;;;;4.53;2.22;;;;;;;;;;5053426;28;20413;-58
2023/08/08 00:09:27;;;;;;;4.82;2.63;;;;;;;;;;5055189;28;20831;-57
2023/08/08 00:11:53;;;;;;;4.53;2.55;;;;;;;;;;5056051;28;20547;-58
2023/08/08 00:14:20;;;;;;;4.15;2.38;;;;;;;;;;5057686;28;20417;-59
2023/08/08 00:16:49;;;;;;;4.43;2.63;;;;;;;;;;5056487;28;20819;-58
2023/08/08 00:19:16;;;;;;;5.13;2.65;;;;;;;;;;5050460;28;20405;-58
2023/08/08 00:21:43;;;;;;;5.37;2.23;;;;;;;;;;5056418;28;20561;-57
2023/08/08 00:24:10;;;;;;;5.05;2.30;;;;;;;;;;5051472;28;20892;-58
2023/08/08 00:26:37;;;;;;;5.00;2.42;;;;;;;;;;5058506;28;21159;-56
2023/08/08 00:29:04;;;;;;;4.22;3.22;;;;;;;;;;5058494;28;20492;-57
2023/08/08 00:31:31;;;;;;;5.13;2.45;;;;;;;;;;5053725;28;20421;-58
2023/08/08 00:33:59;;;;;;;3.30;2.53;;;;;;;;;;5051685;28;20483;-58
2023/08/08 00:36:26;;;;;;;6.93;2.33;;;;;;;;;;5058308;28;20413;-57
2023/08/08 00:38:53;;;;;;;3.78;2.25;;;;;;;;;;5050635;28;20406;-58
2023/08/08 00:41:21;;;;;;;5.60;2.20;;;;;;;;;;5057455;28;20429;-58
2023/08/08 00:43:49;;;;;;;3.28;1.98;;;;;;;;;;5052262;28;20500;-57
2023/08/08 00:46:23;;;;;;;4.70;2.10;;;;;;;;;;5059016;28;20413;-53
2023/08/08 00:48:50;;;;;;;3.63;2.40;;;;;;;;;;5052453;28;20424;-55
2023/08/08 00:51:19;;;;;;;4.32;2.25;;;;;;;;;;5059365;28;20490;-58
2023/08/08 00:53:47;;;;;;;3.92;2.10;;;;;;;;;;5051163;28;20425;-56
2023/08/08 00:56:16;;;;;;;3.03;2.25;;;;;;;;;;5059061;28;20484;-57
2023/08/08 00:58:45;;;;;;;5.40;2.22;;;;;;;;;;5052157;28;20791;-56
2023/08/08 01:01:12;;;;;;;4.03;2.20;;;;;;;;;;5058256;28;20792;-56
2023/08/08 01:03:39;;;;;;;3.58;2.15;;;;;;;;;;5052077;28;20420;-55
2023/08/08 01:06:10;;;;;;;3.92;2.30;;;;;;;;;;5055988;28;20442;-56
2023/08/08 01:08:41;;;;;;;3.45;2.42;;;;;;;;;;5050948;28;20823;-57
2023/08/08 01:11:08;;;;;;;3.93;2.43;;;;;;;;;;5056127;28;20435;-58
2023/08/08 01:13:35;;;;;;;5.15;2.60;;;;;;;;;;5050712;28;20429;-57
2023/08/08 01:16:03;;;;;;;4.18;2.53;;;;;;;;;;5055957;28;20451;-57
2023/08/08 01:18:30;;;;;;;3.10;2.47;;;;;;;;;;5050829;28;20432;-55
2023/08/08 01:20:58;;;;;;;4.70;2.63;;;;;;;;;;5052404;28;20471;-58
2023/08/08 01:23:27;;;;;;;5.35;2.28;;;;;;;;;;5056830;28;20921;-58
2023/08/08 01:25:57;;;;;;;5.15;2.60;;;;;;;;;;5058095;28;20953;-57
2023/08/08 01:28:24;;;;;;;5.20;2.40;;;;;;;;;;5053302;28;20472;-58
2023/08/08 01:30:51;;;;;;;5.82;2.30;;;;;;;;;;5056092;28;20417;-57
2023/08/08 01:33:18;;;;;;;4.88;2.53;;;;;;;;;;5049522;28;20436;-58
2023/08/08 01:35:47;;;;;;;3.95;2.50;;;;;;;;;;5055762;28;20412;-59
2023/08/08 01:38:19;;;;;;;5.38;2.30;;;;;;;;;;5050545;28;20418;-58
2023/08/08 01:40:46;;;;;;;5.37;2.60;;;;;;;;;;5053618;28;20413;-58
2023/08/08 01:43:16;;;;;;;4.35;2.83;;;;;;;;;;5051079;28;20800;-58
2023/08/08 01:45:43;;;;;;;3.95;2.70;;;;;;;;;;5052573;28;20834;-59
2023/08/08 01:48:11;;;;;;;5.23;2.53;;;;;;;;;;5050282;28;20753;-58
2023/08/08 01:50:38;;;;;;;5.15;2.80;;;;;;;;;;5053481;28;20557;-60
2023/08/08 01:53:05;;;;;;;5.22;2.85;;;;;;;;;;5051366;28;20425;-59
2023/08/08 01:55:32;;;;;;;4.63;2.42;;;;;;;;;;5053384;28;20848;-58
2023/08/08 01:57:59;;;;;;;4.13;2.70;;;;;;;;;;5053886;28;20483;-58
2023/08/08 02:00:28;;;;;;;4.13;2.60;;;;;;;;;;5054070;28;20417;-58
2023/08/08 02:02:55;;;;;;;5.78;2.47;;;;;;;;;;5054318;28;20414;-58
2023/08/08 02:05:22;;;;;;;5.20;2.78;;;;;;;;;;5056244;28;20455;-58
2023/08/08 02:07:49;;;;;;;5.97;2.78;;;;;;;;;;5053106;28;20421;-58
2023/08/08 02:10:16;;;;;;;3.85;2.78;;;;;;;;;;5052754;28;20418;-59
2023/08/08 02:12:43;;;;;;;4.75;2.63;;;;;;;;;;5053394;28;20437;-57
2023/08/08 02:15:10;;;;;;;7.72;2.70;;;;;;;;;;5053509;28;20819;-56
2023/08/08 02:17:39;;;;;;;6.72;2.90;;;;;;;;;;5055971;28;20425;-58
2023/08/08 02:20:06;;;;;;;5.93;2.42;;;;;;;;;;5053219;28;20415;-58
2023/08/08 02:22:33;;;;;;;7.82;2.70;;;;;;;;;;5050893;28;20489;-54
2023/08/08 02:25:00;;;;;;;5.57;3.03;;;;;;;;;;5054768;28;20428;-58
2023/08/08 02:27:27;;;;;;;7.32;2.83;;;;;;;;;;5052375;28;21042;-58
2023/08/08 02:29:54;;;;;;;6.00;3.00;;;;;;;;;;5052875;28;20478;-57
2023/08/08 02:32:21;;;;;;;5.88;2.70;;;;;;;;;;5052425;28;20421;-58
2023/08/08 02:34:50;;;;;;;5.57;2.90;;;;;;;;;;5049575;28;20499;-58
2023/08/08 02:37:17;;;;;;;6.68;2.97;;;;;;;;;;5053642;28;20483;-58
2023/08/08 02:39:44;;;;;;;7.50;2.80;;;;;;;;;;5051327;28;20416;-58
2023/08/08 02:42:11;;;;;;;4.20;2.50;;;;;;;;;;5053977;28;20490;-57
2023/08/08 02:44:38;;;;;;;6.45;3.20;;;;;;;;;;5051267;28;20482;-57
2023/08/08 02:47:05;;;;;;;7.63;2.90;;;;;;;;;;5054879;28;20866;-58
2023/08/08 02:49:33;;;;;;;5.75;2.72;;;;;;;;;;5049909;28;20444;-58
2023/08/08 02:52:01;;;;;;;6.10;2.85;;;;;;;;;;5050805;28;20508;-58
2023/08/08 02:54:28;;;;;;;6.47;2.67;;;;;;;;;;5049349;28;20547;-58
2023/08/08 02:56:55;;;;;;;7.13;2.83;;;;;;;;;;5059657;28;20478;-57
2023/08/08 02:59:22;;;;;;;6.07;2.90;;;;;;;;;;5050243;28;20416;-57
2023/08/08 03:01:50;;;;;;;4.93;2.92;;;;;;;;;;5056399;28;20421;-58
2023/08/08 03:04:17;;;;;;;4.85;2.85;;;;;;;;;;5048834;28;20420;-58
2023/08/08 03:06:44;;;;;;;5.33;3.00;;;;;;;;;;5056030;28;20479;-57
2023/08/08 03:09:12;;;;;;;7.18;3.03;;;;;;;;;;5052147;28;20483;-58
2023/08/08 03:11:41;;;;;;;8.40;3.00;;;;;;;;;;5056910;28;20421;-58
2023/08/08 03:14:08;;;;;;;4.85;3.00;;;;;;;;;;5049274;28;20437;-56
2023/08/08 03:16:35;;;;;;;6.15;3.40;;;;;;;;;;5053137;28;20416;-58
2023/08/08 03:19:02;;;;;;;6.30;3.00;;;;;;;;;;5051210;28;20471;-58
2023/08/08 03:21:29;;;;;;;9.40;3.50;;;;;;;;;;5053844;28;20436;-57
2023/08/08 03:23:56;;;;;;;8.00;3.13;;;;;;;;;;5049251;28;20463;-57
2023/08/08 03:26:25;;;;;;;7.95;3.42;;;;;;;;;;5055993;28;20465;-57
2023/08/08 03:28:53;;;;;;;6.95;3.42;;;;;;;;;;5051862;28;20516;-55
2023/08/08 03:31:20;;;;;;;7.97;3.30;;;;;;;;;;5054395;28;20448;-58
2023/08/08 03:33:47;;;;;;;7.57;3.50;;;;;;;;;;5049026;28;20429;-58
2023/08/08 03:36:14;;;;;;;7.38;3.78;;;;;;;;;;5056483;28;20415;-58
2023/08/08 03:38:44;;;;;;;7.90;3.50;;;;;;;;;;5053330;28;20520;-58
2023/08/08 03:41:11;;;;;;;6.05;3.60;;;;;;;;;;5054030;28;20471;-58
2023/08/08 03:43:39;;;;;;;5.07;3.78;;;;;;;;;;5049028;28;20413;-58
2023/08/08 03:46:06;;;;;;;9.43;4.05;;;;;;;;;;5055868;28;20419;-55
2023/08/08 03:48:33;;;;;;;6.88;4.32;;;;;;;;;;5052538;28;20421;-56
2023/08/08 03:51:00;;;;;;;7.57;4.20;;;;;;;;;;5056195;28;20417;-59
2023/08/08 03:53:27;;;;;;;10.13;4.45;;;;;;;;;;5053704;28;20487;-58
2023/08/08 03:55:54;;;;;;;8.98;4.85;;;;;;;;;;5052913;28;20421;-58
2023/08/08 03:58:21;;;;;;;8.15;5.10;;;;;;;;;;5054861;28;20907;-55
2023/08/08 04:00:49;;;;;;;13.38;5.50;;;;;;;;;;5056197;28;20459;-58
2023/08/08 04:03:17;;;;;;;7.40;5.15;;;;;;;;;;5052639;28;20887;-58
2023/08/08 04:05:47;;;;;;;9.47;5.50;;;;;;;;;;5054726;28;20413;-57
2023/08/08 04:08:14;;;;;;;9.73;5.40;;;;;;;;;;5056408;28;20942;-57
2023/08/08 04:10:41;;;;;;;10.47;5.70;;;;;;;;;;5055152;28;20509;-57
2023/08/08 04:13:08;;;;;;;9.55;5.68;;;;;;;;;;5054076;28;20425;-58
2023/08/08 04:15:35;;;;;;;9.13;6.17;;;;;;;;;;5054285;28;20780;-59
2023/08/08 04:18:06;;;;;;;9.63;5.93;;;;;;;;;;5053980;28;20560;-56
2023/08/08 04:20:33;;;;;;;13.37;5.63;;;;;;;;;;5054071;28;20417;-58
2023/08/08 04:23:00;;;;;;;9.80;5.90;;;;;;;;;;5055731;28;20923;-59
2023/08/08 04:25:27;;;;;;;11.63;6.30;;;;;;;;;;5056070;28;20413;-57
2023/08/08 04:27:54;;;;;;;10.07;5.85;;;;;;;;;;5051123;28;20921;-57
2023/08/08 04:30:21;;;;;;;10.52;6.00;;;;;;;;;;5061742;28;20423;-60
2023/08/08 04:32:48;;;;;;;9.07;5.70;;;;;;;;;;5056370;28;20481;-61
2023/08/08 04:35:17;;;;;;;10.55;6.50;;;;;;;;;;5054295;28;20479;-58
2023/08/08 04:37:44;;;;;;;12.88;5.90;;;;;;;;;;5053317;28;20509;-58
2023/08/08 04:40:11;;;;;;;13.02;5.97;;;;;;;;;;5056397;28;20951;-58
2023/08/08 04:42:38;;;;;;;15.57;6.22;;;;;;;;;;5060813;28;20973;-58
2023/08/08 04:45:06;;;;;;;12.52;6.18;;;;;;;;;;5060659;28;20904;-57
2023/08/08 04:47:33;;;;;;;12.30;6.43;;;;;;;;;;5057464;28;20466;-58
2023/08/08 04:50:00;;;;;;;13.05;6.60;;;;;;;;;;5056724;28;20896;-59
2023/08/08 04:52:28;;;;;;;12.65;7.70;;;;;;;;;;5054955;28;20826;-59
2023/08/08 04:54:55;;;;;;;14.98;7.60;;;;;;;;;;5058210;28;20483;-58
2023/08/08 04:57:22;;;;;;;11.15;7.78;;;;;;;;;;5060639;28;20469;-58
2023/08/08 04:59:49;;;;;;;14.13;8.15;;;;;;;;;;5064520;28;20751;-59
2023/08/08 05:02:16;;;;;;;14.95;8.85;;;;;;;;;;5059607;28;20409;-58
2023/08/08 05:04:43;;;;;;;14.98;8.13;;;;;;;;;;5063001;28;20426;-58
2023/08/08 05:07:10;;;;;;;15.98;9.38;;;;;;;;;;5058868;28;20423;-57
2023/08/08 05:09:38;;;;;;;16.73;8.43;;;;;;;;;;5060157;28;20420;-58
2023/08/08 05:12:06;;;;;;;18.90;9.20;;;;;;;;;;5059370;28;20407;-59
2023/08/08 05:14:33;;;;;;;17.17;9.50;;;;;;;;;;5051901;28;20558;-58
2023/08/08 05:17:00;;;;;;;18.27;9.65;;;;;;;;;;5052163;28;20415;-59
2023/08/08 05:19:27;;;;;;;18.67;10.07;;;;;;;;;;5060396;28;20817;-58
2023/08/08 05:21:54;;;;;;;15.23;10.45;;;;;;;;;;5059198;28;20403;-58
2023/08/08 05:24:21;;;;;;;17.30;10.60;;;;;;;;;;5061027;28;20421;-58
2023/08/08 05:26:49;;;;;;;20.58;10.68;;;;;;;;;;5059026;28;20415;-57
2023/08/08 05:29:16;;;;;;;18.45;11.35;;;;;;;;;;5063539;28;20487;-57
2023/08/08 05:31:43;;;;;;;19.08;11.07;;;;;;;;;;5060532;28;20415;-58
2023/08/08 05:34:10;;;;;;;18.98;11.48;;;;;;;;;;5059975;28;20436;-57
2023/08/08 05:36:37;;;;;;;19.27;10.75;;;;;;;;;;5060213;28;20896;-57
2023/08/08 05:39:06;;;;;;;17.15;10.95;;;;;;;;;;5059787;28;20463;-58
2023/08/08 05:41:33;;;;;;;21.42;11.38;;;;;;;;;;5061222;28;20471;-57
2023/08/08 05:44:02;;;;;;;21.55;12.05;;;;;;;;;;5059560;28;20420;-58
2023/08/08 05:46:29;;;;;;;21.95;11.30;;;;;;;;;;5056461;28;20417;-57
2023/08/08 05:48:56;;;;;;;19.17;12.10;;;;;;;;;;5060145;28;20413;-58
2023/08/08 05:51:23;;;;;;;17.65;11.77;;;;;;;;;;5059576;28;20475;-57
2023/08/08 05:53:50;;;;;;;19.20;12.73;;;;;;;;;;5061059;28;21078;-57
2023/08/08 05:56:17;;;;;;;17.90;12.27;;;;;;;;;;5058171;28;20425;-55
2023/08/08 05:58:44;;;;;;;23.38;13.15;;;;;;;;;;5063165;28;20415;-55
2023/08/08 06:01:12;;;;;;;18.27;12.20;;;;;;;;;;5059321;28;20600;-58
2023/08/08 06:03:39;;;;;;;21.88;13.18;;;;;;;;;;5061325;28;20817;-60
2023/08/08 06:06:07;;;;;;;23.90;13.13;;;;;;;;;;5058327;28;20467;-60
2023/08/08 06:08:34;;;;;;;21.77;12.47;;;;;;;;;;5061771;28;20920;-58
2023/08/08 06:11:01;;;;;;;23.70;13.15;;;;;;;;;;5058990;28;20465;-60
2023/08/08 06:13:28;;;;;;;21.63;13.27;;;;;;;;;;5056885;28;20478;-58
2023/08/08 06:15:55;;;;;;;23.70;13.15;;;;;;;;;;5054970;28;20431;-59
2023/08/08 06:18:23;;;;;;;24.58;13.85;;;;;;;;;;5058016;28;20425;-60
2023/08/08 06:20:50;;;;;;;22.05;13.80;;;;;;;;;;5061547;28;20787;-58
2023/08/08 06:23:17;;;;;;;24.45;14.93;;;;;;;;;;5058301;28;20452;-60
2023/08/08 06:25:44;;;;;;;31.25;15.25;;;;;;;;;;5059391;28;20411;-58
2023/08/08 06:28:11;;;;;;;26.02;13.77;;;;;;;;;;5060150;28;20769;-58
2023/08/08 06:30:38;;;;;;;24.90;14.00;;;;;;;;;;5062795;28;20498;-57
2023/08/08 06:33:05;;;;;;;23.08;14.25;;;;;;;;;;5058159;28;20425;-60
2023/08/08 06:35:34;;;;;;;23.20;13.77;;;;;;;;;;5060042;28;20425;-59
2023/08/08 06:38:01;;;;;;;22.70;13.47;;;;;;;;;;5058306;28;20464;-59
2023/08/08 06:40:28;;;;;;;20.20;13.63;;;;;;;;;;5057079;28;20405;-59
2023/08/08 06:42:55;;;;;;;22.97;13.30;;;;;;;;;;5058835;28;20440;-59
2023/08/08 06:45:22;;;;;;;22.52;13.38;;;;;;;;;;5058383;28;20410;-60
2023/08/08 06:47:49;;;;;;;23.90;13.43;;;;;;;;;;5058867;28;20817;-58
2023/08/08 06:50:16;;;;;;;23.17;13.90;;;;;;;;;;5058656;28;20497;-59
2023/08/08 06:52:44;;;;;;;22.60;13.77;;;;;;;;;;5059166;28;20413;-59
2023/08/08 06:55:12;;;;;;;25.40;14.23;;;;;;;;;;5058523;28;20466;-59
2023/08/08 06:57:39;;;;;;;25.40;13.53;;;;;;;;;;5060699;28;20517;-58
2023/08/08 07:00:08;;;;;;;23.98;13.95;;;;;;;;;;5061032;28;20463;-59
2023/08/08 07:02:35;;;;;;;23.55;14.52;;;;;;;;;;5055046;28;20454;-59
2023/08/08 07:05:03;;;;;;;24.48;14.05;;;;;;;;;;5059467;28;20409;-60
2023/08/08 07:07:30;;;;;;;21.13;13.45;;;;;;;;;;5058302;28;20445;-60
2023/08/08 07:09:59;;;;;;;23.27;14.15;;;;;;;;;;5059902;28;20447;-59
2023/08/08 07:12:26;;;;;;;23.92;13.45;;;;;;;;;;5057799;28;20457;-59
2023/08/08 07:14:53;;;;;;;22.88;13.63;;;;;;;;;;5059942;28;20439;-60
2023/08/08 07:17:20;;;;;;;24.13;14.02;;;;;;;;;;5057173;28;20451;-60
2023/08/08 07:19:47;;;;;;;23.52;13.80;;;;;;;;;;5059059;28;20399;-60
2023/08/08 07:22:14;;;;;;;22.40;13.10;;;;;;;;;;5061903;28;20443;-58
2023/08/08 07:24:41;;;;;;;22.13;14.40;;;;;;;;;;5064910;28;20867;-60
2023/08/08 07:27:09;;;;;;;19.25;12.68;;;;;;;;;;5064635;28;20407;-60
2023/08/08 07:29:36;;;;;;;22.83;11.93;;;;;;;;;;5067228;28;20452;-60
2023/08/08 07:32:04;;;;;;;21.40;12.20;;;;;;;;;;5061301;28;20412;-60
2023/08/08 07:34:32;;;;;;;16.25;11.40;;;;;;;;;;5064240;28;20845;-59
2023/08/08 07:36:59;;;;;;;17.88;11.27;;;;;;;;;;5061013;28;20832;-57
2023/08/08 07:39:26;;;;;;;17.63;11.48;;;;;;;;;;5063342;28;20471;-60
2023/08/08 07:41:53;;;;;;;18.20;10.88;;;;;;;;;;5062101;28;20856;-60
2023/08/08 07:44:21;;;;;;;17.52;10.82;;;;;;;;;;5062432;28;20907;-60
2023/08/08 07:46:48;;;;;;;15.55;10.57;;;;;;;;;;5063048;28;20825;-60
2023/08/08 07:49:16;;;;;;;15.35;10.27;;;;;;;;;;5060289;28;20409;-60
2023/08/08 07:51:43;;;;;;;16.75;10.38;;;;;;;;;;5062705;28;20836;-60
2023/08/08 07:54:10;;;;;;;18.75;9.93;;;;;;;;;;5060783;28;20789;-60
2023/08/08 07:56:38;;;;;;;15.55;9.73;;;;;;;;;;5061380;28;20415;-60
2023/08/08 07:59:05;;;;;;;15.35;8.68;;;;;;;;;;5063503;28;20501;-60
2023/08/08 08:01:34;;;;;;;15.57;9.05;;;;;;;;;;5062432;28;20413;-59
2023/08/08 08:04:02;;;;;;;17.27;8.83;;;;;;;;;;5061663;28;20459;-60
2023/08/08 08:06:29;;;;;;;11.20;7.72;;;;;;;;;;5061655;28;20440;-60
2023/08/08 08:08:56;;;;;;;12.27;8.18;;;;;;;;;;5061998;28;20828;-59
2023/08/08 08:11:23;;;;;;;13.95;7.97;;;;;;;;;;5061438;28;20417;-60
2023/08/08 08:13:50;;;;;;;14.05;7.95;;;;;;;;;;5062992;28;20435;-60
2023/08/08 08:16:18;;;;;;;12.95;8.00;;;;;;;;;;5060516;28;20437;-60
2023/08/08 08:18:47;;;;;;;12.73;7.65;;;;;;;;;;5061267;28;20444;-60
2023/08/08 08:21:17;;;;;;;12.88;7.55;;;;;;;;;;5061367;28;20448;-60
2023/08/08 08:23:44;;;;;;;9.32;6.72;;;;;;;;;;5057910;28;20418;-60
2023/08/08 08:26:11;;;;;;;10.77;6.28;;;;;;;;;;5059515;28;20519;-61
2023/08/08 08:28:39;;;;;;;14.07;6.67;;;;;;;;;;5065152;28;20502;-60
2023/08/08 08:31:07;;;;;;;10.83;6.43;;;;;;;;;;5061933;28;20452;-59
2023/08/08 08:33:34;;;;;;;12.48;6.65;;;;;;;;;;5061024;28;20419;-60
2023/08/08 08:36:02;;;;;;;12.10;6.18;;;;;;;;;;5062422;28;20493;-60
2023/08/08 08:38:29;;;;;;;14.17;6.20;;;;;;;;;;5060104;28;20555;-60
2023/08/08 08:40:57;;;;;;;11.07;6.05;;;;;;;;;;5063305;28;20431;-60
2023/08/08 08:43:24;;;;;;;12.43;5.80;;;;;;;;;;5059647;28;20903;-60
2023/08/08 08:45:54;;;;;;;8.98;5.72;;;;;;;;;;5063130;28;20483;-60
2023/08/08 08:48:22;;;;;;;10.02;5.18;;;;;;;;;;5059652;28;20413;-60
2023/08/08 08:50:49;;;;;;;8.60;4.67;;;;;;;;;;5063113;28;20407;-60
2023/08/08 08:53:18;;;;;;;10.93;4.53;;;;;;;;;;5059895;28;20416;-61
2023/08/08 08:55:46;;;;;;;11.60;4.50;;;;;;;;;;5061304;28;20428;-58
2023/08/08 08:58:15;;;;;;;9.15;4.20;;;;;;;;;;5063967;28;20502;-58
2023/08/08 09:00:42;;;;;;;8.47;4.10;;;;;;;;;;5064273;28;20499;-60
2023/08/08 09:03:09;;;;;;;9.82;4.40;;;;;;;;;;5059797;28;20469;-59
2023/08/08 09:05:36;;;;;;;8.95;4.10;;;;;;;;;;5062149;28;20408;-58
2023/08/08 09:08:03;;;;;;;8.20;4.35;;;;;;;;;;5060115;28;20458;-59
2023/08/08 09:10:34;;;;;;;7.82;4.13;;;;;;;;;;5061936;28;20405;-59
2023/08/08 09:13:01;;;;;;;8.68;3.80;;;;;;;;;;5059343;28;20411;-60
2023/08/08 09:15:32;;;;;;;7.90;3.80;;;;;;;;;;5061225;28;20783;-59
2023/08/08 09:17:59;;;;;;;7.75;3.60;;;;;;;;;;5059779;28;20477;-57
2023/08/08 09:20:28;;;;;;;10.10;3.67;;;;;;;;;;5061430;28;20413;-59
2023/08/08 09:22:55;;;;;;;7.53;3.70;;;;;;;;;;5060283;28;20828;-58
2023/08/08 09:25:23;;;;;;;6.93;3.45;;;;;;;;;;5061019;28;20475;-58
2023/08/08 09:27:52;;;;;;;6.60;2.93;;;;;;;;;;5065106;28;20416;-57
2023/08/08 09:30:19;;;;;;;6.32;3.25;;;;;;;;;;5060378;28;20416;-60
2023/08/08 09:32:46;;;;;;;5.22;2.97;;;;;;;;;;5060616;28;20412;-59
2023/08/08 09:35:13;;;;;;;7.40;3.13;;;;;;;;;;5059162;28;20425;-60
2023/08/08 09:37:40;;;;;;;6.70;3.60;;;;;;;;;;5061016;28;20469;-60
2023/08/08 09:40:09;;;;;;;8.27;3.50;;;;;;;;;;5060102;28;20413;-57
2023/08/08 09:42:36;;;;;;;6.28;3.35;;;;;;;;;;5054007;28;20421;-60
2023/08/08 09:45:06;;;;;;;6.13;3.47;;;;;;;;;;5059651;28;20417;-58
2023/08/08 09:47:33;;;;;;;7.85;3.25;;;;;;;;;;5056585;28;20478;-59
2023/08/08 09:50:00;;;;;;;7.47;3.20;;;;;;;;;;5060235;28;20409;-59
2023/08/08 09:52:28;;;;;;;6.70;3.10;;;;;;;;;;5059867;28;20409;-59
2023/08/08 09:54:56;;;;;;;7.13;3.00;;;;;;;;;;5060401;28;20412;-59
2023/08/08 09:57:24;;;;;;;7.65;3.35;;;;;;;;;;5060434;28;20471;-59
2023/08/08 09:59:52;;;;;;;6.63;3.33;;;;;;;;;;5060394;28;20807;-59
2023/08/08 10:02:21;;;;;;;8.25;3.38;;;;;;;;;;5057073;28;20883;-59
2023/08/08 10:04:48;;;;;;;9.93;3.55;;;;;;;;;;5059600;28;20416;-60
2023/08/08 10:07:15;;;;;;;7.75;3.60;;;;;;;;;;5059245;28;20888;-60
2023/08/08 10:09:42;;;;;;;7.05;3.47;;;;;;;;;;5059514;28;20424;-60
2023/08/08 10:12:09;;;;;;;8.43;3.85;;;;;;;;;;5060166;28;20419;-60
2023/08/08 10:14:38;;;;;;;5.88;3.20;;;;;;;;;;5058835;28;20883;-60
2023/08/08 10:17:06;;;;;;;8.70;3.50;;;;;;;;;;5059826;28;20436;-60
2023/08/08 10:19:35;;;;;;;8.20;3.23;;;;;;;;;;5058459;28;20452;-60
2023/08/08 10:22:05;;;;;;;8.23;3.70;;;;;;;;;;5060750;28;20423;-60
2023/08/08 10:24:35;;;;;;;7.63;3.38;;;;;;;;;;5058300;28;20418;-60
2023/08/08 10:27:03;;;;;;;6.82;3.72;;;;;;;;;;5058566;28;20408;-60
2023/08/08 10:29:34;;;;;;;10.43;3.53;;;;;;;;;;5062066;28;20489;-60
2023/08/08 10:32:03;;;;;;;7.30;3.63;;;;;;;;;;5060482;28;20444;-60
2023/08/08 10:34:39;;;;;;;7.30;3.45;;;;;;;;;;5057788;28;20436;-58
2023/08/08 10:37:07;;;;;;;9.95;3.10;;;;;;;;;;5059135;28;20463;-60
2023/08/08 10:39:33;;;;;;;6.03;3.20;;;;;;;;;;5058824;28;20409;-60
2023/08/08 10:42:02;;;;;;;7.40;3.17;;;;;;;;;;5060541;28;20407;-58
2023/08/08 10:44:29;;;;;;;6.55;3.25;;;;;;;;;;5058276;28;20413;-61
2023/08/08 10:46:57;;;;;;;6.18;3.40;;;;;;;;;;5060464;28;20400;-60
2023/08/08 10:49:24;;;;;;;7.85;3.28;;;;;;;;;;5058009;28;20409;-60
2023/08/08 10:51:52;;;;;;;6.38;3.10;;;;;;;;;;5055803;28;20428;-60
2023/08/08 10:54:21;;;;;;;7.90;3.30;;;;;;;;;;5057491;28;20410;-60
2023/08/08 10:56:52;;;;;;;5.53;3.00;;;;;;;;;;5058892;28;20797;-60
2023/08/08 10:59:19;;;;;;;6.78;3.30;;;;;;;;;;5063405;28;20488;-60
2023/08/08 11:01:48;;;;;;;5.97;3.13;;;;;;;;;;5061052;28;20403;-59
2023/08/08 11:04:16;;;;;;;7.43;3.22;;;;;;;;;;5057366;28;20415;-60
2023/08/08 11:06:43;;;;;;;7.77;3.17;;;;;;;;;;5060691;28;20437;-60
2023/08/08 11:09:12;;;;;;;8.68;3.17;;;;;;;;;;5057500;28;20991;-60
2023/08/08 11:11:39;;;;;;;8.10;3.30;;;;;;;;;;5060894;28;20959;-59
2023/08/08 11:14:13;;;;;;;7.75;3.28;;;;;;;;;;5057659;28;20897;-60
2023/08/08 11:16:40;;;;;;;5.32;2.90;;;;;;;;;;5057111;28;20429;-60
2023/08/08 11:19:07;;;;;;;7.80;3.08;;;;;;;;;;5059542;28;20921;-66
2023/08/08 11:21:35;;;;;;;7.80;2.90;;;;;;;;;;5054407;28;20475;-60
2023/08/08 11:24:02;;;;;;;5.75;2.95;;;;;;;;;;5048462;28;20417;-66
2023/08/08 11:26:31;;;;;;;7.40;2.53;;;;;;;;;;5048315;28;20409;-65
2023/08/08 11:28:59;;;;;;;6.65;2.78;;;;;;;;;;5055659;28;20408;-66
2023/08/08 11:31:26;;;;;;;5.87;2.50;;;;;;;;;;5058126;28;20413;-66
2023/08/08 11:33:54;;;;;;;8.00;3.00;;;;;;;;;;5057178;28;20419;-65
2023/08/08 11:36:22;;;;;;;7.68;2.90;;;;;;;;;;5061459;28;20502;-66
2023/08/08 11:38:50;;;;;;;6.47;3.00;;;;;;;;;;5061652;28;20465;-66
2023/08/08 11:41:17;;;;;;;5.75;3.00;;;;;;;;;;5053535;28;20897;-67
2023/08/08 11:43:46;;;;;;;7.40;3.13;;;;;;;;;;5063094;28;20848;-66
2023/08/08 11:46:13;;;;;;;5.00;2.95;;;;;;;;;;5061261;28;20417;-66
2023/08/08 11:48:41;;;;;;;7.73;2.87;;;;;;;;;;5060416;28;20412;-63
2023/08/08 11:51:09;;;;;;;5.75;2.65;;;;;;;;;;5065351;28;20477;-65
2023/08/08 11:53:36;;;;;;;6.70;3.13;;;;;;;;;;5059641;28;20994;-65
2023/08/08 11:56:04;;;;;;;6.53;3.00;;;;;;;;;;5054146;28;20498;-66
2023/08/08 11:58:31;;;;;;;6.25;3.10;;;;;;;;;;5064992;28;20831;-64
2023/08/08 12:01:00;;;;;;;7.45;3.10;;;;;;;;;;5058575;28;20415;-64
2023/08/08 12:03:27;;;;;;;6.60;3.20;;;;;;;;;;5054802;28;20413;-64
2023/08/08 12:05:55;;;;;;;6.15;3.17;;;;;;;;;;5068109;28;20498;-63
2023/08/08 12:08:23;;;;;;;5.80;3.00;;;;;;;;;;5067190;28;20830;-63
2023/08/08 12:10:51;;;;;;;9.52;3.47;;;;;;;;;;5065159;28;20422;-64
2023/08/08 12:13:21;;;;;;;5.43;3.15;;;;;;;;;;5059697;28;20500;-63
2023/08/08 12:15:48;;;;;;;7.50;3.03;;;;;;;;;;5058776;28;20421;-63
2023/08/08 12:18:19;;;;;;;10.18;3.25;;;;;;;;;;5061007;28;20409;-63
2023/08/08 12:20:46;;;;;;;7.03;3.00;;;;;;;;;;5062085;28;20420;-64
2023/08/08 12:23:15;;;;;;;5.47;2.77;;;;;;;;;;5062004;28;21272;-63
2023/08/08 12:25:44;;;;;;;5.40;2.78;;;;;;;;;;5069994;28;20411;-63
2023/08/08 12:28:11;;;;;;;8.03;3.40;;;;;;;;;;5065233;28;20413;-64
2023/08/08 12:30:38;;;;;;;6.82;2.95;;;;;;;;;;5068733;28;20488;-65
2023/08/08 12:33:05;;;;;;;5.00;2.80;;;;;;;;;;5067417;28;20487;-63
2023/08/08 12:35:33;;;;;;;6.38;3.22;;;;;;;;;;5057584;28;20449;-63
2023/08/08 12:38:00;;;;;;;8.45;2.90;;;;;;;;;;5065884;28;20909;-63
2023/08/08 12:40:28;;;;;;;7.97;2.80;;;;;;;;;;5062273;28;20414;-63
2023/08/08 12:42:55;;;;;;;9.50;3.30;;;;;;;;;;5064487;28;20412;-62
2023/08/08 12:45:22;;;;;;;4.13;2.60;;;;;;;;;;5061811;28;20478;-64
2023/08/08 12:47:49;;;;;;;6.63;2.65;;;;;;;;;;5065433;28;20408;-62
2023/08/08 12:50:17;;;;;;;6.45;2.90;;;;;;;;;;5060762;28;20480;-63
2023/08/08 12:52:45;;;;;;;6.03;2.88;;;;;;;;;;5071300;28;20500;-64
2023/08/08 12:55:14;;;;;;;8.60;3.60;;;;;;;;;;5069218;28;20443;-64
2023/08/08 12:57:41;;;;;;;10.10;3.13;;;;;;;;;;5071416;28;20824;-64
2023/08/08 13:00:09;;;;;;;9.02;3.30;;;;;;;;;;5065738;28;20416;-64
2023/08/08 13:02:36;;;;;;;8.68;3.67;;;;;;;;;;5062738;28;20452;-64
2023/08/08 13:05:03;;;;;;;7.43;3.30;;;;;;;;;;5065219;28;20418;-63
2023/08/08 13:07:30;;;;;;;6.95;3.20;;;;;;;;;;5063064;28;20432;-64
2023/08/08 13:09:59;;;;;;;7.60;3.20;;;;;;;;;;5068236;28;20411;-63
2023/08/08 13:12:26;;;;;;;8.07;2.90;;;;;;;;;;5059508;28;20822;-63
2023/08/08 13:14:53;;;;;;;5.35;2.88;;;;;;;;;;5062458;28;20939;-64
2023/08/08 13:17:20;;;;;;;6.35;2.80;;;;;;;;;;5058587;28;20429;-63
2023/08/08 13:19:47;;;;;;;6.53;3.20;;;;;;;;;;5061556;28;20498;-65
2023/08/08 13:22:14;;;;;;;10.25;3.25;;;;;;;;;;5060026;28;20409;-63
2023/08/08 13:24:41;;;;;;;7.28;2.95;;;;;;;;;;5059326;28;20412;-64
2023/08/08 13:27:09;;;;;;;4.70;2.70;;;;;;;;;;5061443;28;20411;-64
2023/08/08 13:29:36;;;;;;;8.50;3.33;;;;;;;;;;5063125;28;20495;-64
2023/08/08 13:32:03;;;;;;;6.03;3.28;;;;;;;;;;5052275;28;20639;-63
2023/08/08 13:34:30;;;;;;;5.85;3.00;;;;;;;;;;5057009;28;20515;-64
2023/08/08 13:36:57;;;;;;;5.90;2.83;;;;;;;;;;5056546;28;20426;-64
2023/08/08 13:39:24;;;;;;;6.22;2.53;;;;;;;;;;5059407;28;20420;-64
2023/08/08 13:41:51;;;;;;;5.13;2.53;;;;;;;;;;5059705;28;20417;-64
2023/08/08 13:44:19;;;;;;;5.70;2.90;;;;;;;;;;5051143;28;20425;-63
2023/08/08 13:46:46;;;;;;;7.18;2.55;;;;;;;;;;5048672;28;20471;-64
2023/08/08 13:49:13;;;;;;;6.75;2.92;;;;;;;;;;5061224;28;20416;-65
2023/08/08 13:51:41;;;;;;;4.15;2.80;;;;;;;;;;5062165;28;20467;-66
2023/08/08 13:54:08;;;;;;;5.47;2.78;;;;;;;;;;5058240;28;20503;-65
2023/08/08 13:56:35;;;;;;;6.85;3.08;;;;;;;;;;5053670;28;20425;-65
2023/08/08 13:59:02;;;;;;;5.40;3.00;;;;;;;;;;5063409;28;20896;-59
2023/08/08 14:01:30;;;;;;;7.07;3.05;;;;;;;;;;5066646;28;20425;-60
2023/08/08 14:03:57;;;;;;;6.65;3.03;;;;;;;;;;5066733;28;20495;-60
2023/08/08 14:06:25;;;;;;;5.70;2.90;;;;;;;;;;5066381;28;20474;-60
2023/08/08 14:08:53;;;;;;;5.78;2.72;;;;;;;;;;5061891;28;20417;-62
2023/08/08 14:11:20;;;;;;;7.93;3.05;;;;;;;;;;5053648;28;20424;-61
2023/08/08 14:13:47;;;;;;;4.43;3.08;;;;;;;;;;5059962;28;20411;-60
2023/08/08 14:16:14;;;;;;;4.82;2.65;;;;;;;;;;5058241;28;20512;-58
2023/08/08 14:18:45;;;;;;;6.50;2.90;;;;;;;;;;5060081;28;20427;-60
2023/08/08 14:21:15;;;;;;;4.28;2.55;;;;;;;;;;5053482;28;20892;-61
2023/08/08 14:23:42;;;;;;;6.30;2.40;;;;;;;;;;5055066;28;20408;-62
2023/08/08 14:26:09;;;;;;;4.68;2.47;;;;;;;;;;5057139;28;20406;-62
2023/08/08 14:28:36;;;;;;;4.68;2.45;;;;;;;;;;5064694;28;20441;-62
2023/08/08 14:31:06;;;;;;;4.85;2.33;;;;;;;;;;5063541;28;20411;-62
2023/08/08 14:33:33;;;;;;;4.47;2.20;;;;;;;;;;5058124;28;20431;-60
2023/08/08 14:36:01;;;;;;;5.23;2.30;;;;;;;;;;5059203;28;20412;-56
2023/08/08 14:38:28;;;;;;;3.65;2.00;;;;;;;;;;5056980;28;20473;-59